createdAt,value
2022-12-29T00:01:03.890Z,4.89
2022-12-29T00:03:31.992Z,4.90
2022-12-29T00:06:01.913Z,4.86
2022-12-29T00:08:40.974Z,4.87
2022-12-29T00:11:13.303Z,4.90
2022-12-29T00:13:59.265Z,4.87
2022-12-29T00:16:28.257Z,4.73
2022-12-29T00:18:56.539Z,4.60
2022-12-29T00:21:43.980Z,4.51
2022-12-29T00:24:41.713Z,4.43
2022-12-29T00:27:32.408Z,4.39
2022-12-29T00:30:19.169Z,4.43
2022-12-29T00:33:04.853Z,4.44
2022-12-29T00:35:40.456Z,4.39
2022-12-29T00:38:27.572Z,4.34
2022-12-29T00:41:13.280Z,4.25
2022-12-29T00:44:00.806Z,4.24
2022-12-29T00:46:28.872Z,4.36
2022-12-29T00:49:22.914Z,4.43
2022-12-29T00:51:51.332Z,4.46
2022-12-29T00:54:19.743Z,4.44
2022-12-29T00:56:49.583Z,4.47
2022-12-29T00:59:19.421Z,4.53
2022-12-29T01:01:48.458Z,4.50
2022-12-29T01:04:16.802Z,4.48
2022-12-29T01:06:46.462Z,4.46
2022-12-29T01:09:32.166Z,4.38
2022-12-29T01:12:00.599Z,4.40
2022-12-29T01:14:30.371Z,4.41
2022-12-29T01:16:58.488Z,4.45
2022-12-29T01:19:26.816Z,4.51
2022-12-29T01:21:55.130Z,4.50
2022-12-29T01:24:23.786Z,4.36
2022-12-29T01:26:52.044Z,4.22
2022-12-29T01:29:20.511Z,4.19
2022-12-29T01:31:50.762Z,4.08
2022-12-29T01:34:19.407Z,4.00
2022-12-29T01:36:47.593Z,4.02
2022-12-29T01:39:15.709Z,4.15
2022-12-29T01:41:44.364Z,4.24
2022-12-29T01:44:51.599Z,4.21
2022-12-29T01:47:36.826Z,4.06
2022-12-29T01:50:08.987Z,3.94
2022-12-29T01:52:39.385Z,3.95
2022-12-29T01:55:09.968Z,4.07
2022-12-29T01:57:42.410Z,4.13
2022-12-29T02:11:33.156Z,3.36
2022-12-29T02:14:03.698Z,3.29
2022-12-29T02:16:47.805Z,3.28
2022-12-29T02:19:49.475Z,3.32
2022-12-29T02:22:29.478Z,3.38
2022-12-29T02:25:24.731Z,3.41
2022-12-29T02:28:00.551Z,3.41
2022-12-29T02:30:46.135Z,3.41
2022-12-29T02:33:24.312Z,3.43
2022-12-29T02:35:59.816Z,3.37
2022-12-29T02:38:51.529Z,3.38
2022-12-29T02:41:25.234Z,3.43
2022-12-29T02:43:58.848Z,3.47
2022-12-29T02:46:36.428Z,3.52
2022-12-29T02:49:11.635Z,3.55
2022-12-29T02:51:58.212Z,3.57
2022-12-29T02:54:45.203Z,3.59
2022-12-29T02:57:15.856Z,3.58
2022-12-29T02:59:47.314Z,3.55
2022-12-29T03:02:37.056Z,3.53
2022-12-29T03:05:19.271Z,3.49
2022-12-29T03:07:58.905Z,3.52
2022-12-29T03:10:37.722Z,3.55
2022-12-29T03:13:32.918Z,3.60
2022-12-29T03:16:08.644Z,3.62
2022-12-29T03:18:46.427Z,3.69
2022-12-29T03:21:18.676Z,3.72
2022-12-29T03:23:51.076Z,3.78
2022-12-29T03:26:20.907Z,3.79
2022-12-29T03:28:54.125Z,3.84
2022-12-29T03:31:25.804Z,3.92
2022-12-29T03:33:57.746Z,3.95
2022-12-29T03:36:30.740Z,4.00
2022-12-29T03:39:04.776Z,4.02
2022-12-29T03:41:35.372Z,4.02
2022-12-29T03:44:03.573Z,4.04
2022-12-29T03:46:31.614Z,4.04
2022-12-29T03:49:01.226Z,4.05
2022-12-29T03:51:29.186Z,4.00
2022-12-29T03:53:57.199Z,4.00
2022-12-29T03:56:25.258Z,4.02
2022-12-29T03:58:53.365Z,4.11
2022-12-29T04:01:21.626Z,4.17
2022-12-29T04:03:49.793Z,4.12
2022-12-29T04:06:19.381Z,4.05
2022-12-29T04:08:47.520Z,4.09
2022-12-29T04:11:15.552Z,4.13
2022-12-29T04:13:43.611Z,4.13
2022-12-29T04:16:11.749Z,4.14
2022-12-29T04:18:39.934Z,4.34
2022-12-29T04:21:08.385Z,4.47
2022-12-29T04:23:39.587Z,4.61
2022-12-29T04:26:10.095Z,4.77
2022-12-29T04:28:38.588Z,4.82
2022-12-29T04:31:07.185Z,4.78
2022-12-29T04:33:35.463Z,4.82
2022-12-29T04:36:03.670Z,4.87
2022-12-29T04:38:31.711Z,4.87
2022-12-29T04:41:03.542Z,4.85
2022-12-29T04:43:31.596Z,4.79
2022-12-29T04:45:59.821Z,4.77
2022-12-29T04:48:27.951Z,4.75
2022-12-29T04:50:55.999Z,4.71
2022-12-29T04:53:24.016Z,4.67
2022-12-29T04:55:52.915Z,4.70
2022-12-29T04:58:23.495Z,4.78
2022-12-29T05:00:52.300Z,4.80
2022-12-29T05:03:20.688Z,4.85
2022-12-29T05:05:48.840Z,4.91
2022-12-29T05:08:16.845Z,4.99
2022-12-29T05:10:47.074Z,5.00
2022-12-29T05:13:15.280Z,4.98
2022-12-29T05:15:50.177Z,4.86
2022-12-29T05:18:18.620Z,4.81
2022-12-29T05:20:47.116Z,4.82
2022-12-29T05:23:15.745Z,4.82
2022-12-29T05:25:46.191Z,4.89
2022-12-29T05:28:14.435Z,4.92
2022-12-29T05:30:44.096Z,4.98
2022-12-29T05:33:13.260Z,5.03
2022-12-29T05:35:41.386Z,5.07
2022-12-29T05:38:09.529Z,5.11
2022-12-29T05:40:37.643Z,5.14
2022-12-29T05:43:05.719Z,5.09
2022-12-29T05:45:33.810Z,5.10
2022-12-29T05:48:03.169Z,5.08
2022-12-29T05:50:31.429Z,5.00
2022-12-29T05:52:59.473Z,4.96
2022-12-29T05:55:27.463Z,4.89
2022-12-29T05:57:55.425Z,4.84
2022-12-29T06:00:23.554Z,4.83
2022-12-29T06:02:52.191Z,4.86
2022-12-29T06:05:21.761Z,4.94
2022-12-29T06:07:49.854Z,5.06
2022-12-29T06:10:18.220Z,5.15
2022-12-29T06:12:46.517Z,5.21
2022-12-29T06:15:14.590Z,5.30
2022-12-29T06:17:42.913Z,5.32
2022-12-29T06:20:12.540Z,5.26
2022-12-29T06:22:41.987Z,5.22
2022-12-29T06:25:11.089Z,5.20
2022-12-29T06:27:39.131Z,5.20
2022-12-29T06:30:08.086Z,5.27
2022-12-29T06:32:36.175Z,5.34
2022-12-29T06:35:04.876Z,5.30
2022-12-29T06:37:32.960Z,5.30
2022-12-29T06:40:03.078Z,5.27
2022-12-29T06:42:31.300Z,5.18
2022-12-29T06:45:01.721Z,5.19
2022-12-29T06:47:29.804Z,5.21
2022-12-29T06:49:57.783Z,5.21
2022-12-29T06:52:25.891Z,5.26
2022-12-29T06:54:53.916Z,5.26
2022-12-29T06:57:24.405Z,5.30
2022-12-29T06:59:52.348Z,5.35
2022-12-29T07:02:20.772Z,5.40
2022-12-29T07:04:48.922Z,5.50
2022-12-29T07:07:17.088Z,5.58
2022-12-29T07:09:45.560Z,5.70
2022-12-29T07:12:13.717Z,5.79
2022-12-29T07:14:43.828Z,5.77
2022-12-29T07:17:12.012Z,5.70
2022-12-29T07:19:40.108Z,5.71
2022-12-29T07:22:08.256Z,5.71
2022-12-29T07:24:36.441Z,5.77
2022-12-29T07:27:04.772Z,5.83
2022-12-29T07:29:32.925Z,5.88
2022-12-29T07:32:02.995Z,5.95
2022-12-29T07:34:31.013Z,5.97
2022-12-29T07:36:58.945Z,5.92
2022-12-29T07:39:27.135Z,5.89
2022-12-29T07:41:58.310Z,5.87
2022-12-29T07:44:30.729Z,5.90
2022-12-29T07:46:58.958Z,5.95
2022-12-29T07:49:28.652Z,5.94
2022-12-29T07:51:56.717Z,5.96
2022-12-29T07:54:24.809Z,6.02
2022-12-29T07:56:52.895Z,6.09
2022-12-29T07:59:21.196Z,6.11
2022-12-29T08:01:49.429Z,6.17
2022-12-29T08:04:17.555Z,6.21
2022-12-29T08:06:47.603Z,6.22
2022-12-29T08:09:22.057Z,6.20
2022-12-29T08:11:50.675Z,6.27
2022-12-29T08:14:19.330Z,6.32
2022-12-29T08:16:47.471Z,6.41
2022-12-29T08:19:16.285Z,6.51
2022-12-29T08:21:44.237Z,6.61
2022-12-29T08:24:13.630Z,6.66
2022-12-29T08:26:41.648Z,6.64
2022-12-29T08:29:09.688Z,6.57
2022-12-29T08:31:37.909Z,6.57
2022-12-29T08:34:06.816Z,6.67
2022-12-29T08:36:34.845Z,6.77
2022-12-29T08:39:02.956Z,6.83
2022-12-29T08:41:32.553Z,6.86
2022-12-29T08:44:00.575Z,6.88
2022-12-29T08:46:28.708Z,6.96
2022-12-29T08:48:56.966Z,7.04
2022-12-29T08:51:25.379Z,7.10
2022-12-29T08:53:54.066Z,7.19
2022-12-29T08:56:22.331Z,7.27
2022-12-29T08:58:52.402Z,7.23
2022-12-29T09:01:20.986Z,7.09
2022-12-29T09:04:19.240Z,6.94
2022-12-29T09:06:40.569Z,6.70
2022-12-29T09:09:09.229Z,6.50
2022-12-29T09:11:37.350Z,6.40
2022-12-29T09:14:06.928Z,6.38
2022-12-29T09:16:35.449Z,6.43
2022-12-29T09:19:03.736Z,6.45
2022-12-29T09:21:31.988Z,6.40
2022-12-29T09:24:00.020Z,6.27
2022-12-29T09:26:28.343Z,6.16
2022-12-29T09:28:56.394Z,6.16
2022-12-29T09:31:26.253Z,6.20
2022-12-29T09:33:54.306Z,6.29
2022-12-29T09:36:22.398Z,6.43
2022-12-29T09:38:50.496Z,6.52
2022-12-29T09:41:23.185Z,6.60
2022-12-29T09:44:07.847Z,6.74
2022-12-29T09:46:42.356Z,6.82
2022-12-29T09:49:19.686Z,6.97
2022-12-29T09:51:54.356Z,7.15
2022-12-29T09:54:28.322Z,7.31
2022-12-29T09:56:57.591Z,7.46
2022-12-29T09:59:37.617Z,7.58
2022-12-29T10:02:23.470Z,7.56
2022-12-29T10:04:53.257Z,7.55
2022-12-29T10:07:33.170Z,7.62
2022-12-29T10:10:14.143Z,7.71
2022-12-29T10:12:57.959Z,7.78
2022-12-29T10:15:38.926Z,7.89
2022-12-29T10:18:25.326Z,7.97
2022-12-29T10:20:57.880Z,8.05
2022-12-29T10:23:31.149Z,8.10
2022-12-29T10:26:00.347Z,8.12
2022-12-29T10:28:37.426Z,8.11
2022-12-29T10:31:11.402Z,8.11
2022-12-29T10:33:44.337Z,8.06
2022-12-29T10:36:19.035Z,8.06
2022-12-29T10:38:55.210Z,8.05
2022-12-29T10:41:28.460Z,8.02
2022-12-29T10:43:59.148Z,8.06
2022-12-29T10:46:31.478Z,8.03
2022-12-29T10:49:01.145Z,8.06
2022-12-29T10:51:32.518Z,8.07
2022-12-29T10:54:06.024Z,8.13
2022-12-29T10:56:37.016Z,8.34
2022-12-29T10:59:15.340Z,8.57
2022-12-29T11:01:52.818Z,8.84
2022-12-29T11:04:34.666Z,9.02
2022-12-29T11:07:03.404Z,9.13
2022-12-29T11:09:42.422Z,9.27
2022-12-29T11:12:23.152Z,9.42
2022-12-29T11:15:04.187Z,9.57
2022-12-29T11:17:32.299Z,9.68
2022-12-29T11:20:01.693Z,9.72
2022-12-29T11:22:30.910Z,9.70
2022-12-29T11:25:12.995Z,9.67
2022-12-29T11:27:43.252Z,9.60
2022-12-29T11:30:25.555Z,9.59
2022-12-29T11:32:54.652Z,9.66
2022-12-29T11:35:35.445Z,9.76
2022-12-29T11:38:04.571Z,9.85
2022-12-29T11:40:35.169Z,10.00
2022-12-29T11:43:04.984Z,10.10
2022-12-29T11:45:36.546Z,10.15
2022-12-29T11:48:09.924Z,10.16
2022-12-29T11:50:42.835Z,10.15
2022-12-29T11:53:18.680Z,10.25
2022-12-29T11:55:55.186Z,10.37
2022-12-29T11:58:23.352Z,10.49
2022-12-29T12:00:53.115Z,10.61
2022-12-29T12:03:24.210Z,10.70
2022-12-29T12:05:58.826Z,10.75
2022-12-29T12:08:37.958Z,10.79
2022-12-29T12:11:12.072Z,10.80
2022-12-29T12:13:45.880Z,10.77
2022-12-29T12:16:18.048Z,10.78
2022-12-29T12:18:50.899Z,10.81
2022-12-29T12:21:27.185Z,10.85
2022-12-29T12:24:16.339Z,10.85
2022-12-29T12:26:57.515Z,10.85
2022-12-29T12:29:30.877Z,10.86
2022-12-29T12:32:03.804Z,10.89
2022-12-29T12:34:38.239Z,10.86
2022-12-29T12:37:35.912Z,10.76
2022-12-29T12:40:22.532Z,10.69
2022-12-29T12:43:00.513Z,10.69
2022-12-29T12:45:48.110Z,10.72
2022-12-29T12:48:34.024Z,10.70
2022-12-29T12:51:13.106Z,10.72
2022-12-29T12:53:59.401Z,10.76
2022-12-29T12:56:46.219Z,10.78
2022-12-29T12:59:33.275Z,10.78
2022-12-29T13:02:10.535Z,10.77
2022-12-29T13:05:18.125Z,10.76
2022-12-29T13:07:59.662Z,10.73
2022-12-29T13:10:45.949Z,10.74
2022-12-29T13:13:41.270Z,10.81
2022-12-29T13:16:20.006Z,10.87
2022-12-29T13:18:55.204Z,10.88
2022-12-29T13:21:34.943Z,10.94
2022-12-29T13:24:07.486Z,10.94
2022-12-29T13:26:45.658Z,10.97
2022-12-29T13:29:21.435Z,11.00
2022-12-29T13:31:56.294Z,11.01
2022-12-29T13:34:35.145Z,11.04
2022-12-29T13:37:11.863Z,11.05
2022-12-29T13:39:43.708Z,11.07
2022-12-29T13:42:14.204Z,11.15
2022-12-29T13:44:47.471Z,11.23
2022-12-29T13:47:24.204Z,11.29
2022-12-29T13:49:54.167Z,11.34
2022-12-29T13:52:31.880Z,11.36
2022-12-29T13:55:09.527Z,11.40
2022-12-29T13:57:47.273Z,11.38
2022-12-29T14:00:18.773Z,11.34
2022-12-29T14:03:03.958Z,11.29
2022-12-29T14:05:34.015Z,11.22
2022-12-29T14:08:05.418Z,11.16
2022-12-29T14:10:37.155Z,11.12
2022-12-29T14:13:13.199Z,11.12
2022-12-29T14:15:43.554Z,11.12
2022-12-29T14:18:18.587Z,11.07
2022-12-29T14:20:56.077Z,11.00
2022-12-29T14:23:38.903Z,10.97
2022-12-29T14:26:16.468Z,10.95
2022-12-29T14:28:47.783Z,10.93
2022-12-29T14:31:42.317Z,10.94
2022-12-29T14:34:33.342Z,10.94
2022-12-29T14:37:02.794Z,10.95
2022-12-29T14:39:36.774Z,10.94
2022-12-29T14:42:08.328Z,10.95
2022-12-29T14:44:49.156Z,11.00
2022-12-29T14:47:22.075Z,11.03
2022-12-29T14:49:50.418Z,11.08
2022-12-29T14:52:22.207Z,11.12
2022-12-29T14:54:55.082Z,11.17
2022-12-29T14:57:31.925Z,11.16
2022-12-29T15:00:07.948Z,11.15
2022-12-29T15:02:41.973Z,11.15
2022-12-29T15:05:28.462Z,11.10
2022-12-29T15:07:59.018Z,11.06
2022-12-29T15:10:29.129Z,11.00
2022-12-29T15:12:57.667Z,10.94
2022-12-29T15:15:29.531Z,10.89
2022-12-29T15:17:58.142Z,10.83
2022-12-29T15:20:30.487Z,10.77
2022-12-29T15:23:00.631Z,10.71
2022-12-29T15:25:28.826Z,10.61
2022-12-29T15:28:01.692Z,10.48
2022-12-29T15:30:31.244Z,10.42
2022-12-29T15:32:59.741Z,10.42
2022-12-29T15:35:31.751Z,10.44
2022-12-29T15:38:00.839Z,10.42
2022-12-29T15:40:31.746Z,10.41
2022-12-29T15:43:24.282Z,10.42
2022-12-29T15:45:56.040Z,10.42
2022-12-29T15:48:26.983Z,10.39
2022-12-29T15:50:55.089Z,10.40
2022-12-29T15:53:29.393Z,10.38
2022-12-29T15:56:03.652Z,10.36
2022-12-29T15:58:33.055Z,10.33
2022-12-29T16:01:03.736Z,10.26
2022-12-29T16:03:36.384Z,10.15
2022-12-29T16:06:12.856Z,10.00
2022-12-29T16:08:42.215Z,9.86
2022-12-29T16:11:27.349Z,9.72
2022-12-29T16:13:57.397Z,9.61
2022-12-29T16:16:31.124Z,9.49
2022-12-29T16:19:00.280Z,9.42
2022-12-29T16:21:34.859Z,9.38
2022-12-29T16:24:07.669Z,9.39
2022-12-29T16:26:36.035Z,9.40
2022-12-29T16:29:09.403Z,9.43
2022-12-29T16:31:52.097Z,9.47
2022-12-29T16:34:27.125Z,9.48
2022-12-29T16:36:57.571Z,9.51
2022-12-29T16:39:32.522Z,9.58
2022-12-29T16:42:00.968Z,9.64
2022-12-29T16:44:31.616Z,9.73
2022-12-29T16:47:04.821Z,9.76
2022-12-29T16:49:34.985Z,9.76
2022-12-29T16:52:12.830Z,9.77
2022-12-29T16:54:42.176Z,9.70
2022-12-29T16:57:11.230Z,9.66
2022-12-29T16:59:43.594Z,9.66
2022-12-29T17:02:17.773Z,9.67
2022-12-29T17:04:49.490Z,9.65
2022-12-29T17:07:19.300Z,9.64
2022-12-29T17:09:47.334Z,9.64
2022-12-29T17:12:19.371Z,9.63
2022-12-29T17:14:50.461Z,9.63
2022-12-29T17:17:23.021Z,9.71
2022-12-29T17:19:54.074Z,9.78
2022-12-29T17:22:26.328Z,9.85
2022-12-29T17:24:54.701Z,9.90
2022-12-29T17:27:32.878Z,9.80
2022-12-29T17:30:04.520Z,9.71
2022-12-29T17:32:34.704Z,9.71
2022-12-29T17:35:02.943Z,9.63
2022-12-29T17:37:36.786Z,9.48
2022-12-29T17:40:06.826Z,9.36
2022-12-29T17:42:39.623Z,9.32
2022-12-29T17:45:14.206Z,9.26
2022-12-29T17:47:44.020Z,9.22
2022-12-29T17:50:14.768Z,9.26
2022-12-29T17:52:43.049Z,9.33
2022-12-29T17:55:17.676Z,9.40
2022-12-29T17:57:45.930Z,9.45
2022-12-29T18:00:18.433Z,9.53
2022-12-29T18:02:48.960Z,9.61
2022-12-29T18:05:21.052Z,9.61
2022-12-29T18:07:49.885Z,9.56
2022-12-29T18:10:18.153Z,9.59
2022-12-29T18:12:48.206Z,9.65
2022-12-29T18:15:21.856Z,9.72
2022-12-29T18:17:55.476Z,9.78
2022-12-29T18:20:23.514Z,9.77
2022-12-29T18:22:51.556Z,9.73
2022-12-29T18:25:24.837Z,9.72
2022-12-29T18:27:52.833Z,9.74
2022-12-29T18:30:20.827Z,9.78
2022-12-29T18:32:48.932Z,9.72
2022-12-29T18:35:28.131Z,9.66
2022-12-29T18:37:56.163Z,9.62
2022-12-29T18:40:24.200Z,9.59
2022-12-29T18:42:52.373Z,9.57
2022-12-29T18:45:21.997Z,9.57
2022-12-29T18:47:50.447Z,9.53
2022-12-29T18:50:20.456Z,9.44
2022-12-29T18:52:48.467Z,9.43
2022-12-29T18:55:20.624Z,9.43
2022-12-29T18:57:48.771Z,9.47
2022-12-29T19:00:18.974Z,9.44
2022-12-29T19:02:47.357Z,9.40
2022-12-29T19:05:26.624Z,9.40
2022-12-29T19:07:55.452Z,9.42
2022-12-29T19:10:25.775Z,9.43
2022-12-29T19:12:54.651Z,9.44
2022-12-29T19:15:25.333Z,9.49
2022-12-29T19:18:32.432Z,9.54
2022-12-29T19:20:45.367Z,9.57
2022-12-29T19:23:16.545Z,9.57
2022-12-29T19:25:45.711Z,9.54
2022-12-29T19:28:19.483Z,9.47
2022-12-29T19:30:51.843Z,9.39
2022-12-29T19:33:20.656Z,9.27
2022-12-29T19:35:50.179Z,9.16
2022-12-29T19:38:18.637Z,9.06
2022-12-29T19:40:50.462Z,9.03
2022-12-29T19:43:19.238Z,9.00
2022-12-29T19:45:47.323Z,8.98
2022-12-29T19:48:17.866Z,8.99
2022-12-29T19:50:46.695Z,8.95
2022-12-29T19:53:16.917Z,8.94
2022-12-29T19:55:45.238Z,8.94
2022-12-29T19:58:14.173Z,8.85
2022-12-29T20:00:43.584Z,8.81
2022-12-29T20:03:12.679Z,8.74
2022-12-29T20:05:41.126Z,8.70
2022-12-29T20:08:09.206Z,8.69
2022-12-29T20:10:38.756Z,8.62
2022-12-29T20:13:07.540Z,8.71
2022-12-29T20:15:35.525Z,8.80
2022-12-29T20:18:13.779Z,8.86
2022-12-29T20:20:43.162Z,8.96
2022-12-29T20:23:11.338Z,9.04
2022-12-29T20:25:46.022Z,9.09
2022-12-29T20:28:22.240Z,9.10
2022-12-29T20:30:59.337Z,9.13
2022-12-29T20:33:27.879Z,9.16
2022-12-29T20:35:56.025Z,9.20
2022-12-29T20:38:24.125Z,9.18
2022-12-29T20:40:53.613Z,9.28
2022-12-29T20:43:21.747Z,9.33
2022-12-29T20:45:50.150Z,9.31
2022-12-29T20:48:18.383Z,9.36
2022-12-29T20:50:46.388Z,9.36
2022-12-29T20:53:14.456Z,9.45
2022-12-29T20:55:42.474Z,9.47
2022-12-29T20:58:27.203Z,9.48
2022-12-29T21:00:56.140Z,9.51
2022-12-29T21:03:24.783Z,9.57
2022-12-29T21:05:53.844Z,9.58
2022-12-29T21:08:22.485Z,9.62
2022-12-29T21:10:51.161Z,9.59
2022-12-29T21:13:21.329Z,9.58
2022-12-29T21:15:49.690Z,9.58
2022-12-29T21:18:17.700Z,9.59
2022-12-29T21:20:45.717Z,9.59
2022-12-29T21:23:14.051Z,9.54
2022-12-29T21:25:45.240Z,9.52
2022-12-29T21:28:13.424Z,9.50
2022-12-29T21:30:43.337Z,9.50
2022-12-29T21:33:11.491Z,9.53
2022-12-29T21:35:39.850Z,9.54
2022-12-29T21:38:08.866Z,9.53
2022-12-29T21:40:38.905Z,9.54
2022-12-29T21:43:07.745Z,9.54
2022-12-29T21:45:34.971Z,9.58
2022-12-29T21:48:25.128Z,9.64
2022-12-29T21:51:13.065Z,9.65
2022-12-29T21:53:43.093Z,9.66
2022-12-29T21:56:12.982Z,9.67
2022-12-29T21:59:00.682Z,9.68
2022-12-29T22:01:48.115Z,9.65
2022-12-29T22:04:37.573Z,9.65
2022-12-29T22:07:25.597Z,9.71
2022-12-29T22:10:11.323Z,9.75
2022-12-29T22:12:56.595Z,9.79
2022-12-29T22:15:24.705Z,9.84
2022-12-29T22:17:54.376Z,9.91
2022-12-29T22:20:26.335Z,9.92
2022-12-29T22:22:54.656Z,9.96
2022-12-29T22:25:23.617Z,9.99
2022-12-29T22:27:57.228Z,10.01
2022-12-29T22:30:27.474Z,9.99
2022-12-29T22:32:56.634Z,9.98
2022-12-29T22:35:26.369Z,9.98
2022-12-29T22:37:54.715Z,9.97
2022-12-29T22:40:22.799Z,9.93
2022-12-29T22:42:50.832Z,9.89
2022-12-29T22:45:19.149Z,9.81
2022-12-29T22:47:47.344Z,9.84
2022-12-29T22:50:15.390Z,9.82
2022-12-29T22:52:44.848Z,9.70
2022-12-29T22:55:12.891Z,9.68
2022-12-29T22:57:40.940Z,9.73
2022-12-29T23:00:10.574Z,9.78
2022-12-29T23:02:38.776Z,9.83
2022-12-29T23:05:07.952Z,9.82
2022-12-29T23:07:36.625Z,9.75
2022-12-29T23:10:06.700Z,9.71
2022-12-29T23:12:34.757Z,9.59
2022-12-29T23:15:02.744Z,9.46
2022-12-29T23:17:30.836Z,9.36
2022-12-29T23:19:59.002Z,9.24
2022-12-29T23:22:26.990Z,9.11
2022-12-29T23:24:55.035Z,9.10
2022-12-29T23:27:24.464Z,9.14
2022-12-29T23:29:52.513Z,9.09
2022-12-29T23:32:20.489Z,9.05
2022-12-29T23:34:48.527Z,9.06
2022-12-29T23:37:16.728Z,9.11
2022-12-29T23:39:44.902Z,9.18
2022-12-29T23:42:13.034Z,9.25
2022-12-29T23:44:42.638Z,9.30
2022-12-29T23:47:10.813Z,9.28
2022-12-29T23:49:38.774Z,9.26
2022-12-29T23:52:06.875Z,9.24
2022-12-29T23:54:34.993Z,9.18
2022-12-29T23:57:02.947Z,9.28
2022-12-29T23:59:30.949Z,9.33
